sensor_id;sensor_type;location;lat;lon;timestamp;P1;durP1;ratioP1;P2;durP2;ratioP2
38312;SDS011;24114;52.260;6.714;2023-07-09T00:01:13;5.25;;;4.32;;
38312;SDS011;24114;52.260;6.714;2023-07-09T00:03:44;6.22;;;4.18;;
38312;SDS011;24114;52.260;6.714;2023-07-09T00:06:12;5.18;;;4.03;;
38312;SDS011;24114;52.260;6.714;2023-07-09T00:08:41;5.53;;;4.90;;
38312;SDS011;24114;52.260;6.714;2023-07-09T00:11:12;4.50;;;3.80;;
38312;SDS011;24114;52.260;6.714;2023-07-09T00:13:40;4.85;;;4.35;;
38312;SDS011;24114;52.260;6.714;2023-07-09T00:16:12;4.55;;;3.92;;
38312;SDS011;24114;52.260;6.714;2023-07-09T00:18:43;4.73;;;4.03;;
38312;SDS011;24114;52.260;6.714;2023-07-09T00:21:11;7.00;;;4.57;;
38312;SDS011;24114;52.260;6.714;2023-07-09T00:23:39;4.83;;;4.07;;
38312;SDS011;24114;52.260;6.714;2023-07-09T00:26:08;5.95;;;4.25;;
38312;SDS011;24114;52.260;6.714;2023-07-09T00:28:37;5.78;;;4.55;;
38312;SDS011;24114;52.260;6.714;2023-07-09T00:31:06;5.80;;;4.60;;
38312;SDS011;24114;52.260;6.714;2023-07-09T00:33:37;5.05;;;4.45;;
38312;SDS011;24114;52.260;6.714;2023-07-09T00:36:07;5.57;;;4.53;;
38312;SDS011;24114;52.260;6.714;2023-07-09T00:38:40;5.50;;;4.40;;
38312;SDS011;24114;52.260;6.714;2023-07-09T00:41:15;6.25;;;4.47;;
38312;SDS011;24114;52.260;6.714;2023-07-09T00:43:45;6.78;;;4.15;;
38312;SDS011;24114;52.260;6.714;2023-07-09T00:46:16;5.20;;;4.47;;
38312;SDS011;24114;52.260;6.714;2023-07-09T00:49:02;5.77;;;4.10;;
38312;SDS011;24114;52.260;6.714;2023-07-09T00:51:32;5.75;;;4.22;;
38312;SDS011;24114;52.260;6.714;2023-07-09T00:54:03;5.07;;;4.45;;
38312;SDS011;24114;52.260;6.714;2023-07-09T00:56:36;5.05;;;4.55;;
38312;SDS011;24114;52.260;6.714;2023-07-09T00:59:07;5.88;;;4.43;;
38312;SDS011;24114;52.260;6.714;2023-07-09T01:01:36;4.65;;;4.25;;
38312;SDS011;24114;52.260;6.714;2023-07-09T01:04:08;5.85;;;4.03;;
38312;SDS011;24114;52.260;6.714;2023-07-09T01:06:38;7.93;;;4.00;;
38312;SDS011;24114;52.260;6.714;2023-07-09T01:09:08;5.63;;;4.63;;
38312;SDS011;24114;52.260;6.714;2023-07-09T01:11:37;5.13;;;4.63;;
38312;SDS011;24114;52.260;6.714;2023-07-09T01:14:06;5.87;;;5.20;;
38312;SDS011;24114;52.260;6.714;2023-07-09T01:16:36;5.47;;;4.33;;
38312;SDS011;24114;52.260;6.714;2023-07-09T01:19:06;6.07;;;4.80;;
38312;SDS011;24114;52.260;6.714;2023-07-09T01:21:38;6.20;;;4.97;;
38312;SDS011;24114;52.260;6.714;2023-07-09T01:24:13;5.38;;;4.55;;
38312;SDS011;24114;52.260;6.714;2023-07-09T01:26:42;5.97;;;4.90;;
38312;SDS011;24114;52.260;6.714;2023-07-09T01:29:10;7.28;;;4.93;;
38312;SDS011;24114;52.260;6.714;2023-07-09T01:31:38;5.63;;;4.70;;
38312;SDS011;24114;52.260;6.714;2023-07-09T01:34:06;5.63;;;4.70;;
38312;SDS011;24114;52.260;6.714;2023-07-09T01:36:34;6.50;;;4.85;;
38312;SDS011;24114;52.260;6.714;2023-07-09T01:39:07;5.40;;;4.35;;
38312;SDS011;24114;52.260;6.714;2023-07-09T01:41:35;5.73;;;4.97;;
38312;SDS011;24114;52.260;6.714;2023-07-09T01:44:03;5.95;;;4.60;;
38312;SDS011;24114;52.260;6.714;2023-07-09T01:46:31;5.05;;;4.55;;
38312;SDS011;24114;52.260;6.714;2023-07-09T01:48:59;5.75;;;4.45;;
38312;SDS011;24114;52.260;6.714;2023-07-09T01:51:27;6.00;;;4.73;;
38312;SDS011;24114;52.260;6.714;2023-07-09T01:53:55;4.72;;;4.25;;
38312;SDS011;24114;52.260;6.714;2023-07-09T01:56:24;5.47;;;4.93;;
38312;SDS011;24114;52.260;6.714;2023-07-09T01:58:52;5.28;;;4.78;;
38312;SDS011;24114;52.260;6.714;2023-07-09T02:01:27;8.05;;;5.07;;
38312;SDS011;24114;52.260;6.714;2023-07-09T02:03:55;5.78;;;4.68;;
38312;SDS011;24114;52.260;6.714;2023-07-09T02:06:23;5.07;;;4.57;;
38312;SDS011;24114;52.260;6.714;2023-07-09T02:08:51;6.40;;;5.00;;
38312;SDS011;24114;52.260;6.714;2023-07-09T02:11:19;6.22;;;4.55;;
38312;SDS011;24114;52.260;6.714;2023-07-09T02:13:48;5.40;;;4.75;;
38312;SDS011;24114;52.260;6.714;2023-07-09T02:16:15;5.35;;;4.85;;
38312;SDS011;24114;52.260;6.714;2023-07-09T02:18:43;6.38;;;4.70;;
38312;SDS011;24114;52.260;6.714;2023-07-09T02:21:11;6.13;;;5.47;;
38312;SDS011;24114;52.260;6.714;2023-07-09T02:23:39;5.68;;;4.97;;
38312;SDS011;24114;52.260;6.714;2023-07-09T02:26:07;8.70;;;5.43;;
38312;SDS011;24114;52.260;6.714;2023-07-09T02:28:35;6.03;;;4.78;;
38312;SDS011;24114;52.260;6.714;2023-07-09T02:31:04;6.70;;;5.32;;
38312;SDS011;24114;52.260;6.714;2023-07-09T02:33:32;5.80;;;5.20;;
38312;SDS011;24114;52.260;6.714;2023-07-09T02:36:02;5.65;;;5.03;;
38312;SDS011;24114;52.260;6.714;2023-07-09T02:38:30;7.32;;;5.00;;
38312;SDS011;24114;52.260;6.714;2023-07-09T02:40:58;6.60;;;4.72;;
38312;SDS011;24114;52.260;6.714;2023-07-09T02:43:26;5.95;;;5.20;;
38312;SDS011;24114;52.260;6.714;2023-07-09T02:45:53;6.63;;;5.40;;
38312;SDS011;24114;52.260;6.714;2023-07-09T02:48:23;6.25;;;4.97;;
38312;SDS011;24114;52.260;6.714;2023-07-09T02:50:51;7.10;;;5.18;;
38312;SDS011;24114;52.260;6.714;2023-07-09T02:53:18;5.18;;;4.68;;
38312;SDS011;24114;52.260;6.714;2023-07-09T02:55:46;6.10;;;4.53;;
38312;SDS011;24114;52.260;6.714;2023-07-09T02:58:14;5.90;;;5.30;;
38312;SDS011;24114;52.260;6.714;2023-07-09T03:00:42;6.28;;;5.18;;
38312;SDS011;24114;52.260;6.714;2023-07-09T03:03:10;5.55;;;5.00;;
38312;SDS011;24114;52.260;6.714;2023-07-09T03:05:39;5.47;;;4.97;;
38312;SDS011;24114;52.260;6.714;2023-07-09T03:08:07;5.78;;;4.90;;
38312;SDS011;24114;52.260;6.714;2023-07-09T03:10:35;5.35;;;4.85;;
38312;SDS011;24114;52.260;6.714;2023-07-09T03:13:03;5.47;;;4.97;;
38312;SDS011;24114;52.260;6.714;2023-07-09T03:15:31;5.47;;;4.95;;
38312;SDS011;24114;52.260;6.714;2023-07-09T03:17:59;5.35;;;4.85;;
38312;SDS011;24114;52.260;6.714;2023-07-09T03:20:27;5.72;;;4.93;;
38312;SDS011;24114;52.260;6.714;2023-07-09T03:22:56;5.50;;;5.00;;
38312;SDS011;24114;52.260;6.714;2023-07-09T03:25:24;5.60;;;5.00;;
38312;SDS011;24114;52.260;6.714;2023-07-09T03:27:52;9.18;;;5.20;;
38312;SDS011;24114;52.260;6.714;2023-07-09T03:30:20;5.50;;;5.00;;
38312;SDS011;24114;52.260;6.714;2023-07-09T03:32:48;5.90;;;4.95;;
38312;SDS011;24114;52.260;6.714;2023-07-09T03:35:16;5.85;;;5.25;;
38312;SDS011;24114;52.260;6.714;2023-07-09T03:37:44;7.03;;;5.35;;
38312;SDS011;24114;52.260;6.714;2023-07-09T03:40:20;6.20;;;5.50;;
38312;SDS011;24114;52.260;6.714;2023-07-09T03:42:48;6.13;;;5.20;;
38312;SDS011;24114;52.260;6.714;2023-07-09T03:45:16;6.15;;;5.50;;
38312;SDS011;24114;52.260;6.714;2023-07-09T03:47:44;7.43;;;5.63;;
38312;SDS011;24114;52.260;6.714;2023-07-09T03:50:12;6.22;;;5.63;;
38312;SDS011;24114;52.260;6.714;2023-07-09T03:52:39;7.22;;;5.40;;
38312;SDS011;24114;52.260;6.714;2023-07-09T03:55:08;7.18;;;5.32;;
38312;SDS011;24114;52.260;6.714;2023-07-09T03:57:37;6.85;;;5.32;;
38312;SDS011;24114;52.260;6.714;2023-07-09T04:00:06;7.13;;;5.35;;
38312;SDS011;24114;52.260;6.714;2023-07-09T04:02:36;5.43;;;4.80;;
38312;SDS011;24114;52.260;6.714;2023-07-09T04:05:04;6.43;;;5.03;;
38312;SDS011;24114;52.260;6.714;2023-07-09T04:07:32;8.43;;;5.30;;
38312;SDS011;24114;52.260;6.714;2023-07-09T04:10:00;5.72;;;4.93;;
38312;SDS011;24114;52.260;6.714;2023-07-09T04:12:28;8.00;;;5.40;;
38312;SDS011;24114;52.260;6.714;2023-07-09T04:14:57;5.75;;;5.18;;
38312;SDS011;24114;52.260;6.714;2023-07-09T04:17:26;7.78;;;5.43;;
38312;SDS011;24114;52.260;6.714;2023-07-09T04:19:53;6.68;;;5.10;;
38312;SDS011;24114;52.260;6.714;2023-07-09T04:22:21;6.40;;;5.20;;
38312;SDS011;24114;52.260;6.714;2023-07-09T04:24:49;6.53;;;5.13;;
38312;SDS011;24114;52.260;6.714;2023-07-09T04:27:18;6.32;;;5.40;;
38312;SDS011;24114;52.260;6.714;2023-07-09T04:29:46;7.88;;;5.28;;
38312;SDS011;24114;52.260;6.714;2023-07-09T04:32:16;6.53;;;5.43;;
38312;SDS011;24114;52.260;6.714;2023-07-09T04:34:44;5.77;;;5.17;;
38312;SDS011;24114;52.260;6.714;2023-07-09T04:37:12;5.43;;;4.93;;
38312;SDS011;24114;52.260;6.714;2023-07-09T04:39:40;7.38;;;5.60;;
38312;SDS011;24114;52.260;6.714;2023-07-09T04:42:09;7.40;;;5.60;;
38312;SDS011;24114;52.260;6.714;2023-07-09T04:44:39;8.10;;;5.82;;
38312;SDS011;24114;52.260;6.714;2023-07-09T04:47:07;6.68;;;5.47;;
38312;SDS011;24114;52.260;6.714;2023-07-09T04:49:36;6.35;;;5.75;;
38312;SDS011;24114;52.260;6.714;2023-07-09T04:52:04;8.80;;;5.65;;
38312;SDS011;24114;52.260;6.714;2023-07-09T04:54:33;7.53;;;5.65;;
38312;SDS011;24114;52.260;6.714;2023-07-09T04:57:01;6.75;;;5.32;;
38312;SDS011;24114;52.260;6.714;2023-07-09T04:59:29;6.38;;;5.43;;
38312;SDS011;24114;52.260;6.714;2023-07-09T05:01:58;7.28;;;5.78;;
38312;SDS011;24114;52.260;6.714;2023-07-09T05:04:26;5.88;;;5.10;;
38312;SDS011;24114;52.260;6.714;2023-07-09T05:06:56;6.07;;;5.37;;
38312;SDS011;24114;52.260;6.714;2023-07-09T05:09:24;6.53;;;5.28;;
38312;SDS011;24114;52.260;6.714;2023-07-09T05:11:52;6.72;;;6.03;;
38312;SDS011;24114;52.260;6.714;2023-07-09T05:14:19;8.03;;;5.77;;
38312;SDS011;24114;52.260;6.714;2023-07-09T05:16:47;7.97;;;6.07;;
38312;SDS011;24114;52.260;6.714;2023-07-09T05:19:15;6.22;;;5.47;;
38312;SDS011;24114;52.260;6.714;2023-07-09T05:21:43;7.25;;;6.00;;
38312;SDS011;24114;52.260;6.714;2023-07-09T05:24:12;9.13;;;5.97;;
38312;SDS011;24114;52.260;6.714;2023-07-09T05:26:40;6.65;;;5.80;;
38312;SDS011;24114;52.260;6.714;2023-07-09T05:29:08;7.55;;;5.70;;
38312;SDS011;24114;52.260;6.714;2023-07-09T05:31:35;7.22;;;6.05;;
38312;SDS011;24114;52.260;6.714;2023-07-09T05:34:03;7.90;;;5.50;;
38312;SDS011;24114;52.260;6.714;2023-07-09T05:36:31;8.20;;;5.67;;
38312;SDS011;24114;52.260;6.714;2023-07-09T05:38:59;7.40;;;5.75;;
38312;SDS011;24114;52.260;6.714;2023-07-09T05:41:28;7.03;;;5.43;;
38312;SDS011;24114;52.260;6.714;2023-07-09T05:43:56;7.18;;;5.28;;
38312;SDS011;24114;52.260;6.714;2023-07-09T05:46:24;6.85;;;6.15;;
38312;SDS011;24114;52.260;6.714;2023-07-09T05:48:52;6.05;;;5.45;;
38312;SDS011;24114;52.260;6.714;2023-07-09T05:51:20;6.73;;;5.23;;
38312;SDS011;24114;52.260;6.714;2023-07-09T05:53:50;5.43;;;4.43;;
38312;SDS011;24114;52.260;6.714;2023-07-09T05:57:18;6.68;;;5.75;;
38312;SDS011;24114;52.260;6.714;2023-07-09T05:59:47;5.78;;;5.22;;
38312;SDS011;24114;52.260;6.714;2023-07-09T06:02:17;6.95;;;5.43;;
38312;SDS011;24114;52.260;6.714;2023-07-09T06:04:46;8.90;;;5.90;;
38312;SDS011;24114;52.260;6.714;2023-07-09T06:07:15;8.25;;;6.03;;
38312;SDS011;24114;52.260;6.714;2023-07-09T06:09:44;8.57;;;6.33;;
38312;SDS011;24114;52.260;6.714;2023-07-09T06:12:14;7.13;;;5.80;;
38312;SDS011;24114;52.260;6.714;2023-07-09T06:14:43;6.93;;;5.72;;
38312;SDS011;24114;52.260;6.714;2023-07-09T06:17:11;8.80;;;5.82;;
38312;SDS011;24114;52.260;6.714;2023-07-09T06:19:39;8.30;;;6.03;;
38312;SDS011;24114;52.260;6.714;2023-07-09T06:22:07;8.90;;;6.00;;
38312;SDS011;24114;52.260;6.714;2023-07-09T06:24:35;7.50;;;5.85;;
38312;SDS011;24114;52.260;6.714;2023-07-09T06:27:03;7.40;;;5.88;;
38312;SDS011;24114;52.260;6.714;2023-07-09T06:29:31;6.15;;;5.55;;
38312;SDS011;24114;52.260;6.714;2023-07-09T06:32:01;14.43;;;6.90;;
38312;SDS011;24114;52.260;6.714;2023-07-09T06:34:28;11.10;;;6.72;;
38312;SDS011;24114;52.260;6.714;2023-07-09T06:36:57;8.00;;;6.13;;
38312;SDS011;24114;52.260;6.714;2023-07-09T06:39:24;8.15;;;5.90;;
38312;SDS011;24114;52.260;6.714;2023-07-09T06:41:52;9.10;;;6.47;;
38312;SDS011;24114;52.260;6.714;2023-07-09T06:44:20;9.27;;;6.57;;
38312;SDS011;24114;52.260;6.714;2023-07-09T06:46:48;8.40;;;6.38;;
38312;SDS011;24114;52.260;6.714;2023-07-09T06:49:17;9.30;;;6.35;;
38312;SDS011;24114;52.260;6.714;2023-07-09T06:51:45;8.50;;;6.10;;
38312;SDS011;24114;52.260;6.714;2023-07-09T06:54:13;9.07;;;6.45;;
38312;SDS011;24114;52.260;6.714;2023-07-09T06:56:41;9.23;;;7.10;;
38312;SDS011;24114;52.260;6.714;2023-07-09T06:59:09;8.73;;;6.57;;
38312;SDS011;24114;52.260;6.714;2023-07-09T07:01:37;11.05;;;6.85;;
38312;SDS011;24114;52.260;6.714;2023-07-09T07:04:05;10.00;;;6.75;;
38312;SDS011;24114;52.260;6.714;2023-07-09T07:06:35;6.95;;;5.57;;
38312;SDS011;24114;52.260;6.714;2023-07-09T07:09:03;7.88;;;6.18;;
38312;SDS011;24114;52.260;6.714;2023-07-09T07:11:31;8.50;;;5.93;;
38312;SDS011;24114;52.260;6.714;2023-07-09T07:13:59;7.78;;;6.50;;
38312;SDS011;24114;52.260;6.714;2023-07-09T07:16:26;6.72;;;5.90;;
38312;SDS011;24114;52.260;6.714;2023-07-09T07:18:54;8.90;;;6.22;;
38312;SDS011;24114;52.260;6.714;2023-07-09T07:21:22;7.68;;;5.85;;
38312;SDS011;24114;52.260;6.714;2023-07-09T07:23:51;9.00;;;6.50;;
38312;SDS011;24114;52.260;6.714;2023-07-09T07:26:19;6.72;;;5.60;;
38312;SDS011;24114;52.260;6.714;2023-07-09T07:28:47;8.68;;;6.07;;
38312;SDS011;24114;52.260;6.714;2023-07-09T07:31:16;7.10;;;5.97;;
38312;SDS011;24114;52.260;6.714;2023-07-09T07:33:44;9.32;;;6.18;;
38312;SDS011;24114;52.260;6.714;2023-07-09T07:36:12;8.82;;;6.13;;
38312;SDS011;24114;52.260;6.714;2023-07-09T07:38:43;8.70;;;6.20;;
38312;SDS011;24114;52.260;6.714;2023-07-09T07:41:12;9.55;;;6.30;;
38312;SDS011;24114;52.260;6.714;2023-07-09T07:43:41;7.50;;;6.40;;
38312;SDS011;24114;52.260;6.714;2023-07-09T07:46:10;9.27;;;5.97;;
38312;SDS011;24114;52.260;6.714;2023-07-09T07:48:38;8.03;;;5.97;;
38312;SDS011;24114;52.260;6.714;2023-07-09T07:51:07;7.50;;;5.85;;
38312;SDS011;24114;52.260;6.714;2023-07-09T07:53:35;7.63;;;5.90;;
38312;SDS011;24114;52.260;6.714;2023-07-09T07:56:03;8.57;;;6.50;;
38312;SDS011;24114;52.260;6.714;2023-07-09T07:58:33;7.68;;;5.78;;
38312;SDS011;24114;52.260;6.714;2023-07-09T08:01:01;8.93;;;6.95;;
38312;SDS011;24114;52.260;6.714;2023-07-09T08:03:29;6.45;;;5.80;;
38312;SDS011;24114;52.260;6.714;2023-07-09T08:05:57;9.00;;;6.35;;
38312;SDS011;24114;52.260;6.714;2023-07-09T08:08:28;11.32;;;6.43;;
38312;SDS011;24114;52.260;6.714;2023-07-09T08:10:59;11.00;;;6.50;;
38312;SDS011;24114;52.260;6.714;2023-07-09T08:13:32;8.20;;;5.57;;
38312;SDS011;24114;52.260;6.714;2023-07-09T08:16:00;7.70;;;6.47;;
38312;SDS011;24114;52.260;6.714;2023-07-09T08:18:29;9.55;;;6.57;;
38312;SDS011;24114;52.260;6.714;2023-07-09T08:20:58;7.10;;;5.63;;
38312;SDS011;24114;52.260;6.714;2023-07-09T08:23:26;10.35;;;6.57;;
38312;SDS011;24114;52.260;6.714;2023-07-09T08:25:54;8.43;;;6.60;;
38312;SDS011;24114;52.260;6.714;2023-07-09T08:28:23;8.90;;;6.23;;
38312;SDS011;24114;52.260;6.714;2023-07-09T08:30:53;10.07;;;5.97;;
38312;SDS011;24114;52.260;6.714;2023-07-09T08:33:21;6.93;;;5.57;;
38312;SDS011;24114;52.260;6.714;2023-07-09T08:35:50;7.78;;;5.75;;
38312;SDS011;24114;52.260;6.714;2023-07-09T08:38:18;9.30;;;5.97;;
38312;SDS011;24114;52.260;6.714;2023-07-09T08:40:49;9.50;;;6.77;;
38312;SDS011;24114;52.260;6.714;2023-07-09T08:43:24;9.25;;;6.80;;
38312;SDS011;24114;52.260;6.714;2023-07-09T08:46:13;7.57;;;6.40;;
38312;SDS011;24114;52.260;6.714;2023-07-09T08:48:44;9.40;;;6.32;;
38312;SDS011;24114;52.260;6.714;2023-07-09T08:51:15;10.20;;;6.60;;
38312;SDS011;24114;52.260;6.714;2023-07-09T08:53:46;9.43;;;6.90;;
38312;SDS011;24114;52.260;6.714;2023-07-09T08:56:16;8.93;;;7.10;;
38312;SDS011;24114;52.260;6.714;2023-07-09T08:58:45;9.68;;;6.68;;
38312;SDS011;24114;52.260;6.714;2023-07-09T09:01:19;8.73;;;6.80;;
38312;SDS011;24114;52.260;6.714;2023-07-09T09:03:48;9.00;;;6.77;;
38312;SDS011;24114;52.260;6.714;2023-07-09T09:06:20;9.18;;;6.05;;
38312;SDS011;24114;52.260;6.714;2023-07-09T09:08:55;8.48;;;6.30;;
38312;SDS011;24114;52.260;6.714;2023-07-09T09:11:31;7.35;;;5.45;;
38312;SDS011;24114;52.260;6.714;2023-07-09T09:14:16;8.07;;;5.53;;
38312;SDS011;24114;52.260;6.714;2023-07-09T09:16:48;8.52;;;5.90;;
38312;SDS011;24114;52.260;6.714;2023-07-09T09:19:18;7.45;;;5.80;;
38312;SDS011;24114;52.260;6.714;2023-07-09T09:21:50;7.60;;;5.50;;
38312;SDS011;24114;52.260;6.714;2023-07-09T09:24:26;7.40;;;5.47;;
38312;SDS011;24114;52.260;6.714;2023-07-09T09:26:55;10.68;;;5.15;;
38312;SDS011;24114;52.260;6.714;2023-07-09T09:29:25;6.90;;;5.00;;
38312;SDS011;24114;52.260;6.714;2023-07-09T09:31:55;7.47;;;5.15;;
38312;SDS011;24114;52.260;6.714;2023-07-09T09:34:25;7.10;;;4.88;;
38312;SDS011;24114;52.260;6.714;2023-07-09T09:36:55;7.40;;;5.27;;
38312;SDS011;24114;52.260;6.714;2023-07-09T09:39:24;6.95;;;5.03;;
38312;SDS011;24114;52.260;6.714;2023-07-09T09:41:52;6.47;;;4.78;;
38312;SDS011;24114;52.260;6.714;2023-07-09T09:44:23;7.40;;;4.68;;
38312;SDS011;24114;52.260;6.714;2023-07-09T09:46:55;7.43;;;5.05;;
38312;SDS011;24114;52.260;6.714;2023-07-09T09:49:26;6.43;;;4.70;;
38312;SDS011;24114;52.260;6.714;2023-07-09T09:51:55;5.28;;;4.07;;
38312;SDS011;24114;52.260;6.714;2023-07-09T09:54:24;5.25;;;4.15;;
38312;SDS011;24114;52.260;6.714;2023-07-09T09:56:54;5.63;;;4.55;;
38312;SDS011;24114;52.260;6.714;2023-07-09T09:59:24;5.80;;;4.35;;
38312;SDS011;24114;52.260;6.714;2023-07-09T10:01:59;5.28;;;4.10;;
38312;SDS011;24114;52.260;6.714;2023-07-09T10:04:29;7.03;;;4.63;;
38312;SDS011;24114;52.260;6.714;2023-07-09T10:06:58;5.88;;;4.50;;
38312;SDS011;24114;52.260;6.714;2023-07-09T10:09:34;5.80;;;4.45;;
38312;SDS011;24114;52.260;6.714;2023-07-09T10:12:10;5.40;;;4.60;;
38312;SDS011;24114;52.260;6.714;2023-07-09T10:14:43;5.40;;;4.15;;
38312;SDS011;24114;52.260;6.714;2023-07-09T10:17:17;5.60;;;4.25;;
38312;SDS011;24114;52.260;6.714;2023-07-09T10:19:48;6.13;;;4.57;;
38312;SDS011;24114;52.260;6.714;2023-07-09T10:22:22;6.30;;;4.47;;
38312;SDS011;24114;52.260;6.714;2023-07-09T10:25:01;5.47;;;3.85;;
38312;SDS011;24114;52.260;6.714;2023-07-09T10:27:35;6.85;;;4.05;;
38312;SDS011;24114;52.260;6.714;2023-07-09T10:30:26;4.82;;;4.03;;
38312;SDS011;24114;52.260;6.714;2023-07-09T10:33:07;4.22;;;3.83;;
38312;SDS011;24114;52.260;6.714;2023-07-09T10:35:37;5.20;;;3.80;;
38312;SDS011;24114;52.260;6.714;2023-07-09T10:38:12;5.95;;;4.30;;
38312;SDS011;24114;52.260;6.714;2023-07-09T10:40:49;6.63;;;3.80;;
38312;SDS011;24114;52.260;6.714;2023-07-09T10:43:18;5.25;;;3.60;;
38312;SDS011;24114;52.260;6.714;2023-07-09T10:45:49;6.67;;;4.00;;
38312;SDS011;24114;52.260;6.714;2023-07-09T10:48:25;5.20;;;3.97;;
38312;SDS011;24114;52.260;6.714;2023-07-09T10:50:58;5.10;;;3.83;;
38312;SDS011;24114;52.260;6.714;2023-07-09T10:53:32;4.55;;;3.78;;
38312;SDS011;24114;52.260;6.714;2023-07-09T10:56:04;4.80;;;3.40;;
38312;SDS011;24114;52.260;6.714;2023-07-09T10:58:35;8.10;;;3.57;;
38312;SDS011;24114;52.260;6.714;2023-07-09T11:01:07;5.50;;;3.90;;
38312;SDS011;24114;52.260;6.714;2023-07-09T11:03:38;4.60;;;4.15;;
38312;SDS011;24114;52.260;6.714;2023-07-09T11:06:11;4.60;;;4.10;;
38312;SDS011;24114;52.260;6.714;2023-07-09T11:08:43;5.40;;;3.75;;
38312;SDS011;24114;52.260;6.714;2023-07-09T11:11:13;3.92;;;3.45;;
38312;SDS011;24114;52.260;6.714;2023-07-09T11:13:47;5.25;;;3.90;;
38312;SDS011;24114;52.260;6.714;2023-07-09T11:16:20;5.80;;;4.03;;
38312;SDS011;24114;52.260;6.714;2023-07-09T11:18:56;5.38;;;3.92;;
38312;SDS011;24114;52.260;6.714;2023-07-09T11:21:25;5.45;;;3.67;;
38312;SDS011;24114;52.260;6.714;2023-07-09T11:23:55;7.85;;;3.55;;
38312;SDS011;24114;52.260;6.714;2023-07-09T11:26:26;4.57;;;3.38;;
38312;SDS011;24114;52.260;6.714;2023-07-09T11:28:55;6.00;;;3.40;;
38312;SDS011;24114;52.260;6.714;2023-07-09T11:31:37;5.93;;;3.42;;
38312;SDS011;24114;52.260;6.714;2023-07-09T11:34:09;6.47;;;3.63;;
38312;SDS011;24114;52.260;6.714;2023-07-09T11:36:47;3.97;;;3.00;;
38312;SDS011;24114;52.260;6.714;2023-07-09T11:39:20;3.90;;;3.35;;
38312;SDS011;24114;52.260;6.714;2023-07-09T11:41:49;4.35;;;3.10;;
38312;SDS011;24114;52.260;6.714;2023-07-09T11:44:18;4.55;;;2.83;;
38312;SDS011;24114;52.260;6.714;2023-07-09T11:46:51;4.35;;;3.15;;
38312;SDS011;24114;52.260;6.714;2023-07-09T11:49:24;3.92;;;2.90;;
38312;SDS011;24114;52.260;6.714;2023-07-09T11:51:54;5.22;;;3.38;;
38312;SDS011;24114;52.260;6.714;2023-07-09T11:54:25;5.32;;;2.80;;
38312;SDS011;24114;52.260;6.714;2023-07-09T11:56:53;4.97;;;3.30;;
38312;SDS011;24114;52.260;6.714;2023-07-09T11:59:21;5.80;;;3.20;;
38312;SDS011;24114;52.260;6.714;2023-07-09T12:01:50;4.97;;;2.88;;
38312;SDS011;24114;52.260;6.714;2023-07-09T12:04:21;5.45;;;3.30;;
38312;SDS011;24114;52.260;6.714;2023-07-09T12:06:57;4.03;;;2.73;;
38312;SDS011;24114;52.260;6.714;2023-07-09T12:09:30;5.57;;;3.10;;
38312;SDS011;24114;52.260;6.714;2023-07-09T12:11:58;4.93;;;3.10;;
38312;SDS011;24114;52.260;6.714;2023-07-09T12:14:26;4.30;;;3.00;;
38312;SDS011;24114;52.260;6.714;2023-07-09T12:16:55;3.70;;;2.70;;
38312;SDS011;24114;52.260;6.714;2023-07-09T12:19:24;4.80;;;2.83;;
38312;SDS011;24114;52.260;6.714;2023-07-09T12:21:52;4.83;;;3.17;;
38312;SDS011;24114;52.260;6.714;2023-07-09T12:24:21;4.45;;;2.90;;
38312;SDS011;24114;52.260;6.714;2023-07-09T12:26:51;3.83;;;3.05;;
38312;SDS011;24114;52.260;6.714;2023-07-09T12:29:19;4.13;;;3.35;;
38312;SDS011;24114;52.260;6.714;2023-07-09T12:31:47;3.17;;;2.70;;
38312;SDS011;24114;52.260;6.714;2023-07-09T12:34:15;4.50;;;3.03;;
38312;SDS011;24114;52.260;6.714;2023-07-09T12:36:46;4.95;;;3.15;;
38312;SDS011;24114;52.260;6.714;2023-07-09T12:39:16;8.15;;;3.58;;
38312;SDS011;24114;52.260;6.714;2023-07-09T12:41:47;6.13;;;2.97;;
38312;SDS011;24114;52.260;6.714;2023-07-09T12:44:16;4.10;;;3.07;;
38312;SDS011;24114;52.260;6.714;2023-07-09T12:46:46;5.77;;;3.20;;
38312;SDS011;24114;52.260;6.714;2023-07-09T12:49:23;4.60;;;3.00;;
38312;SDS011;24114;52.260;6.714;2023-07-09T12:51:55;4.22;;;2.80;;
38312;SDS011;24114;52.260;6.714;2023-07-09T12:54:23;4.75;;;3.22;;
38312;SDS011;24114;52.260;6.714;2023-07-09T12:56:51;3.72;;;2.80;;
38312;SDS011;24114;52.260;6.714;2023-07-09T12:59:21;3.37;;;2.80;;
38312;SDS011;24114;52.260;6.714;2023-07-09T13:01:51;4.97;;;3.53;;
38312;SDS011;24114;52.260;6.714;2023-07-09T13:04:27;3.80;;;3.10;;
38312;SDS011;24114;52.260;6.714;2023-07-09T13:06:57;4.75;;;3.13;;
38312;SDS011;24114;52.260;6.714;2023-07-09T13:09:26;5.10;;;3.13;;
38312;SDS011;24114;52.260;6.714;2023-07-09T13:11:55;4.35;;;3.03;;
38312;SDS011;24114;52.260;6.714;2023-07-09T13:14:24;4.53;;;3.25;;
38312;SDS011;24114;52.260;6.714;2023-07-09T13:17:01;5.57;;;2.93;;
38312;SDS011;24114;52.260;6.714;2023-07-09T13:19:30;4.32;;;3.00;;
38312;SDS011;24114;52.260;6.714;2023-07-09T13:21:59;4.38;;;2.80;;
38312;SDS011;24114;52.260;6.714;2023-07-09T13:24:28;3.80;;;3.15;;
38312;SDS011;24114;52.260;6.714;2023-07-09T13:26:56;5.20;;;2.80;;
38312;SDS011;24114;52.260;6.714;2023-07-09T13:29:26;4.07;;;2.95;;
38312;SDS011;24114;52.260;6.714;2023-07-09T13:31:55;3.90;;;3.10;;
38312;SDS011;24114;52.260;6.714;2023-07-09T13:34:24;3.35;;;2.90;;
38312;SDS011;24114;52.260;6.714;2023-07-09T13:36:53;5.65;;;3.28;;
38312;SDS011;24114;52.260;6.714;2023-07-09T13:39:24;5.00;;;3.03;;
38312;SDS011;24114;52.260;6.714;2023-07-09T13:42:47;4.03;;;2.78;;
38312;SDS011;24114;52.260;6.714;2023-07-09T13:45:16;4.63;;;2.92;;
38312;SDS011;24114;52.260;6.714;2023-07-09T13:47:46;5.10;;;3.08;;
38312;SDS011;24114;52.260;6.714;2023-07-09T13:50:14;4.32;;;3.00;;
38312;SDS011;24114;52.260;6.714;2023-07-09T13:52:43;4.07;;;2.60;;
38312;SDS011;24114;52.260;6.714;2023-07-09T13:55:15;5.75;;;3.00;;
38312;SDS011;24114;52.260;6.714;2023-07-09T13:57:46;3.58;;;3.15;;
38312;SDS011;24114;52.260;6.714;2023-07-09T14:00:14;4.75;;;2.92;;
38312;SDS011;24114;52.260;6.714;2023-07-09T14:02:43;5.93;;;3.15;;
38312;SDS011;24114;52.260;6.714;2023-07-09T14:05:12;4.60;;;3.00;;
38312;SDS011;24114;52.260;6.714;2023-07-09T14:07:41;6.15;;;2.97;;
38312;SDS011;24114;52.260;6.714;2023-07-09T14:10:11;4.40;;;2.78;;
38312;SDS011;24114;52.260;6.714;2023-07-09T14:12:41;4.27;;;2.80;;
38312;SDS011;24114;52.260;6.714;2023-07-09T14:15:13;4.70;;;2.85;;
38312;SDS011;24114;52.260;6.714;2023-07-09T14:17:43;5.90;;;3.10;;
38312;SDS011;24114;52.260;6.714;2023-07-09T14:20:11;4.47;;;3.00;;
38312;SDS011;24114;52.260;6.714;2023-07-09T14:22:40;4.22;;;2.90;;
38312;SDS011;24114;52.260;6.714;2023-07-09T14:25:14;4.17;;;2.83;;
38312;SDS011;24114;52.260;6.714;2023-07-09T14:27:45;3.95;;;3.15;;
38312;SDS011;24114;52.260;6.714;2023-07-09T14:30:15;3.73;;;2.90;;
38312;SDS011;24114;52.260;6.714;2023-07-09T14:32:44;4.25;;;3.22;;
38312;SDS011;24114;52.260;6.714;2023-07-09T14:35:13;4.47;;;2.60;;
38312;SDS011;24114;52.260;6.714;2023-07-09T14:37:43;5.22;;;2.90;;
38312;SDS011;24114;52.260;6.714;2023-07-09T14:40:12;5.53;;;3.13;;
38312;SDS011;24114;52.260;6.714;2023-07-09T14:42:40;3.80;;;3.00;;
38312;SDS011;24114;52.260;6.714;2023-07-09T14:45:17;5.22;;;3.50;;
38312;SDS011;24114;52.260;6.714;2023-07-09T14:47:46;5.07;;;3.40;;
38312;SDS011;24114;52.260;6.714;2023-07-09T14:50:14;3.88;;;3.50;;
38312;SDS011;24114;52.260;6.714;2023-07-09T14:53:26;5.60;;;3.42;;
38312;SDS011;24114;52.260;6.714;2023-07-09T14:55:55;4.30;;;3.60;;
38312;SDS011;24114;52.260;6.714;2023-07-09T14:58:23;6.70;;;4.30;;
38312;SDS011;24114;52.260;6.714;2023-07-09T15:00:51;7.40;;;6.03;;
38312;SDS011;24114;52.260;6.714;2023-07-09T15:03:20;7.05;;;4.60;;
38312;SDS011;24114;52.260;6.714;2023-07-09T15:08:12;8.13;;;5.30;;